sensor_id;sensor_type;location;lat;lon;timestamp;P1;durP1;ratioP1;P2;durP2;ratioP2
15677;SDS011;7939;50.814;6.368;2023-09-07T00:01:25;8.75;;;5.18;;
15677;SDS011;7939;50.814;6.368;2023-09-07T00:03:52;7.47;;;5.00;;
15677;SDS011;7939;50.814;6.368;2023-09-07T00:06:18;5.90;;;4.88;;
15677;SDS011;7939;50.814;6.368;2023-09-07T00:08:45;7.03;;;5.60;;
15677;SDS011;7939;50.814;6.368;2023-09-07T00:11:12;5.45;;;4.93;;
15677;SDS011;7939;50.814;6.368;2023-09-07T00:13:38;5.15;;;4.55;;
15677;SDS011;7939;50.814;6.368;2023-09-07T00:16:05;5.45;;;4.38;;
15677;SDS011;7939;50.814;6.368;2023-09-07T00:18:34;5.10;;;4.60;;
15677;SDS011;7939;50.814;6.368;2023-09-07T00:21:00;4.43;;;4.03;;
15677;SDS011;7939;50.814;6.368;2023-09-07T00:23:28;4.80;;;4.20;;
15677;SDS011;7939;50.814;6.368;2023-09-07T00:25:55;6.10;;;4.60;;
15677;SDS011;7939;50.814;6.368;2023-09-07T00:28:22;4.63;;;4.00;;
15677;SDS011;7939;50.814;6.368;2023-09-07T00:30:48;7.10;;;4.43;;
15677;SDS011;7939;50.814;6.368;2023-09-07T00:33:15;4.75;;;4.07;;
15677;SDS011;7939;50.814;6.368;2023-09-07T00:35:43;4.57;;;4.00;;
15677;SDS011;7939;50.814;6.368;2023-09-07T00:38:09;4.57;;;3.85;;
15677;SDS011;7939;50.814;6.368;2023-09-07T00:40:36;5.72;;;4.43;;
15677;SDS011;7939;50.814;6.368;2023-09-07T00:43:03;5.85;;;3.72;;
15677;SDS011;7939;50.814;6.368;2023-09-07T00:45:30;4.25;;;3.85;;
15677;SDS011;7939;50.814;6.368;2023-09-07T00:47:57;4.22;;;3.83;;
15677;SDS011;7939;50.814;6.368;2023-09-07T00:50:23;7.15;;;3.88;;
15677;SDS011;7939;50.814;6.368;2023-09-07T00:52:51;4.97;;;4.03;;
15677;SDS011;7939;50.814;6.368;2023-09-07T00:55:18;4.93;;;3.50;;
15677;SDS011;7939;50.814;6.368;2023-09-07T00:57:46;3.72;;;3.42;;
15677;SDS011;7939;50.814;6.368;2023-09-07T01:00:14;5.05;;;4.10;;
15677;SDS011;7939;50.814;6.368;2023-09-07T01:02:43;4.70;;;4.20;;
15677;SDS011;7939;50.814;6.368;2023-09-07T01:05:11;4.25;;;3.85;;
15677;SDS011;7939;50.814;6.368;2023-09-07T01:07:40;5.65;;;3.85;;
15677;SDS011;7939;50.814;6.368;2023-09-07T01:10:12;3.97;;;3.58;;
15677;SDS011;7939;50.814;6.368;2023-09-07T01:12:39;4.28;;;3.88;;
15677;SDS011;7939;50.814;6.368;2023-09-07T01:15:06;4.05;;;3.65;;
15677;SDS011;7939;50.814;6.368;2023-09-07T01:17:33;5.07;;;3.50;;
15677;SDS011;7939;50.814;6.368;2023-09-07T01:20:02;4.88;;;3.45;;
15677;SDS011;7939;50.814;6.368;2023-09-07T01:22:36;4.93;;;3.80;;
15677;SDS011;7939;50.814;6.368;2023-09-07T01:25:04;4.10;;;3.55;;
15677;SDS011;7939;50.814;6.368;2023-09-07T01:27:32;6.25;;;3.92;;
15677;SDS011;7939;50.814;6.368;2023-09-07T01:29:59;5.47;;;4.00;;
15677;SDS011;7939;50.814;6.368;2023-09-07T01:32:25;4.50;;;3.72;;
15677;SDS011;7939;50.814;6.368;2023-09-07T01:34:52;5.75;;;3.72;;
15677;SDS011;7939;50.814;6.368;2023-09-07T01:37:22;4.63;;;3.75;;
15677;SDS011;7939;50.814;6.368;2023-09-07T01:39:51;4.47;;;4.07;;
15677;SDS011;7939;50.814;6.368;2023-09-07T01:42:17;4.40;;;3.65;;
15677;SDS011;7939;50.814;6.368;2023-09-07T01:44:44;4.38;;;3.97;;
15677;SDS011;7939;50.814;6.368;2023-09-07T01:47:10;3.97;;;3.53;;
15677;SDS011;7939;50.814;6.368;2023-09-07T01:49:37;4.53;;;4.10;;
15677;SDS011;7939;50.814;6.368;2023-09-07T01:52:04;4.05;;;3.50;;
15677;SDS011;7939;50.814;6.368;2023-09-07T01:54:31;5.30;;;4.07;;
15677;SDS011;7939;50.814;6.368;2023-09-07T01:56:59;6.32;;;3.85;;
15677;SDS011;7939;50.814;6.368;2023-09-07T01:59:27;4.50;;;4.10;;
15677;SDS011;7939;50.814;6.368;2023-09-07T02:01:53;4.68;;;4.10;;
15677;SDS011;7939;50.814;6.368;2023-09-07T02:04:20;6.10;;;4.80;;
15677;SDS011;7939;50.814;6.368;2023-09-07T02:06:46;7.57;;;4.20;;
15677;SDS011;7939;50.814;6.368;2023-09-07T02:09:13;4.70;;;3.95;;
15677;SDS011;7939;50.814;6.368;2023-09-07T02:11:39;4.30;;;3.63;;
15677;SDS011;7939;50.814;6.368;2023-09-07T02:14:07;6.97;;;4.25;;
15677;SDS011;7939;50.814;6.368;2023-09-07T02:16:36;4.10;;;3.70;;
15677;SDS011;7939;50.814;6.368;2023-09-07T02:19:02;5.45;;;3.70;;
15677;SDS011;7939;50.814;6.368;2023-09-07T02:21:30;4.82;;;3.97;;
15677;SDS011;7939;50.814;6.368;2023-09-07T02:23:56;4.40;;;4.00;;
15677;SDS011;7939;50.814;6.368;2023-09-07T02:26:23;5.80;;;4.25;;
15677;SDS011;7939;50.814;6.368;2023-09-07T02:28:50;4.97;;;4.30;;
15677;SDS011;7939;50.814;6.368;2023-09-07T02:31:18;6.07;;;4.30;;
15677;SDS011;7939;50.814;6.368;2023-09-07T02:33:44;7.40;;;4.18;;
15677;SDS011;7939;50.814;6.368;2023-09-07T02:36:11;4.45;;;4.05;;
15677;SDS011;7939;50.814;6.368;2023-09-07T02:38:37;4.53;;;3.83;;
15677;SDS011;7939;50.814;6.368;2023-09-07T02:41:04;5.50;;;3.95;;
15677;SDS011;7939;50.814;6.368;2023-09-07T02:43:31;4.13;;;3.72;;
15677;SDS011;7939;50.814;6.368;2023-09-07T02:45:57;4.68;;;4.03;;
15677;SDS011;7939;50.814;6.368;2023-09-07T02:48:25;4.78;;;3.88;;
15677;SDS011;7939;50.814;6.368;2023-09-07T02:50:52;4.63;;;3.95;;
15677;SDS011;7939;50.814;6.368;2023-09-07T02:53:19;5.68;;;4.65;;
15677;SDS011;7939;50.814;6.368;2023-09-07T02:55:45;7.85;;;5.95;;
15677;SDS011;7939;50.814;6.368;2023-09-07T02:58:12;7.25;;;6.13;;
15677;SDS011;7939;50.814;6.368;2023-09-07T03:00:41;7.25;;;5.60;;
15677;SDS011;7939;50.814;6.368;2023-09-07T03:03:09;7.13;;;5.00;;
15677;SDS011;7939;50.814;6.368;2023-09-07T03:05:38;5.32;;;4.25;;
15677;SDS011;7939;50.814;6.368;2023-09-07T03:08:06;6.28;;;3.92;;
15677;SDS011;7939;50.814;6.368;2023-09-07T03:10:33;5.05;;;4.50;;
15677;SDS011;7939;50.814;6.368;2023-09-07T03:13:00;5.13;;;3.92;;
15677;SDS011;7939;50.814;6.368;2023-09-07T03:15:27;3.78;;;3.40;;
15677;SDS011;7939;50.814;6.368;2023-09-07T03:17:54;7.95;;;3.92;;
15677;SDS011;7939;50.814;6.368;2023-09-07T03:20:20;6.28;;;3.95;;
15677;SDS011;7939;50.814;6.368;2023-09-07T03:22:48;3.78;;;3.30;;
15677;SDS011;7939;50.814;6.368;2023-09-07T03:25:15;5.68;;;4.28;;
15677;SDS011;7939;50.814;6.368;2023-09-07T03:27:41;5.00;;;4.28;;
15677;SDS011;7939;50.814;6.368;2023-09-07T03:30:08;5.28;;;4.18;;
15677;SDS011;7939;50.814;6.368;2023-09-07T03:32:35;6.07;;;3.78;;
15677;SDS011;7939;50.814;6.368;2023-09-07T03:35:03;6.93;;;4.20;;
15677;SDS011;7939;50.814;6.368;2023-09-07T03:37:32;5.80;;;4.05;;
15677;SDS011;7939;50.814;6.368;2023-09-07T03:40:00;6.63;;;4.97;;
15677;SDS011;7939;50.814;6.368;2023-09-07T03:42:26;6.38;;;4.10;;
15677;SDS011;7939;50.814;6.368;2023-09-07T03:44:53;7.75;;;3.78;;
15677;SDS011;7939;50.814;6.368;2023-09-07T03:47:19;5.97;;;4.20;;
15677;SDS011;7939;50.814;6.368;2023-09-07T03:49:46;5.35;;;3.88;;
15677;SDS011;7939;50.814;6.368;2023-09-07T03:52:13;5.72;;;4.07;;
15677;SDS011;7939;50.814;6.368;2023-09-07T03:54:39;4.57;;;4.05;;
15677;SDS011;7939;50.814;6.368;2023-09-07T03:57:07;4.95;;;4.00;;
15677;SDS011;7939;50.814;6.368;2023-09-07T03:59:34;4.22;;;3.83;;
15677;SDS011;7939;50.814;6.368;2023-09-07T04:02:00;5.78;;;3.85;;
15677;SDS011;7939;50.814;6.368;2023-09-07T04:04:27;5.38;;;4.25;;
15677;SDS011;7939;50.814;6.368;2023-09-07T04:06:53;5.32;;;4.03;;
15677;SDS011;7939;50.814;6.368;2023-09-07T04:09:20;4.43;;;3.72;;
15677;SDS011;7939;50.814;6.368;2023-09-07T04:11:47;5.22;;;3.72;;
15677;SDS011;7939;50.814;6.368;2023-09-07T04:14:15;4.68;;;3.55;;
15677;SDS011;7939;50.814;6.368;2023-09-07T04:16:42;4.25;;;3.85;;
15677;SDS011;7939;50.814;6.368;2023-09-07T04:19:08;4.38;;;3.85;;
15677;SDS011;7939;50.814;6.368;2023-09-07T04:21:35;5.72;;;4.65;;
15677;SDS011;7939;50.814;6.368;2023-09-07T04:24:02;7.50;;;6.07;;
15677;SDS011;7939;50.814;6.368;2023-09-07T04:26:28;10.05;;;6.20;;
15677;SDS011;7939;50.814;6.368;2023-09-07T04:28:55;6.85;;;5.28;;
15677;SDS011;7939;50.814;6.368;2023-09-07T04:31:23;5.95;;;4.82;;
15677;SDS011;7939;50.814;6.368;2023-09-07T04:33:52;8.57;;;4.95;;
15677;SDS011;7939;50.814;6.368;2023-09-07T04:36:19;5.20;;;4.32;;
15677;SDS011;7939;50.814;6.368;2023-09-07T04:38:45;6.18;;;4.43;;
15677;SDS011;7939;50.814;6.368;2023-09-07T04:41:12;4.68;;;4.20;;
15677;SDS011;7939;50.814;6.368;2023-09-07T04:43:40;7.53;;;4.47;;
15677;SDS011;7939;50.814;6.368;2023-09-07T04:46:08;5.25;;;4.75;;
15677;SDS011;7939;50.814;6.368;2023-09-07T04:48:36;4.95;;;4.30;;
15677;SDS011;7939;50.814;6.368;2023-09-07T04:51:03;5.97;;;4.22;;
15677;SDS011;7939;50.814;6.368;2023-09-07T04:53:31;6.25;;;4.13;;
15677;SDS011;7939;50.814;6.368;2023-09-07T04:56:00;6.32;;;5.07;;
15677;SDS011;7939;50.814;6.368;2023-09-07T04:58:27;5.05;;;4.53;;
15677;SDS011;7939;50.814;6.368;2023-09-07T05:00:53;7.15;;;4.47;;
15677;SDS011;7939;50.814;6.368;2023-09-07T05:03:20;4.78;;;4.03;;
15677;SDS011;7939;50.814;6.368;2023-09-07T05:05:53;4.65;;;4.18;;
15677;SDS011;7939;50.814;6.368;2023-09-07T05:08:20;5.32;;;4.10;;
15677;SDS011;7939;50.814;6.368;2023-09-07T05:10:47;4.30;;;3.90;;
15677;SDS011;7939;50.814;6.368;2023-09-07T05:13:14;4.38;;;3.97;;
15677;SDS011;7939;50.814;6.368;2023-09-07T05:15:46;5.35;;;4.70;;
15677;SDS011;7939;50.814;6.368;2023-09-07T05:18:13;5.43;;;4.03;;
15677;SDS011;7939;50.814;6.368;2023-09-07T05:20:40;4.75;;;4.25;;
15677;SDS011;7939;50.814;6.368;2023-09-07T05:23:08;5.45;;;4.55;;
15677;SDS011;7939;50.814;6.368;2023-09-07T05:25:34;5.07;;;4.43;;
15677;SDS011;7939;50.814;6.368;2023-09-07T05:28:09;6.03;;;4.10;;
15677;SDS011;7939;50.814;6.368;2023-09-07T05:30:35;4.85;;;4.15;;
15677;SDS011;7939;50.814;6.368;2023-09-07T05:33:02;5.47;;;4.45;;
15677;SDS011;7939;50.814;6.368;2023-09-07T05:35:29;6.22;;;4.43;;
15677;SDS011;7939;50.814;6.368;2023-09-07T05:37:57;5.47;;;4.25;;
15677;SDS011;7939;50.814;6.368;2023-09-07T05:40:25;5.13;;;4.18;;
15677;SDS011;7939;50.814;6.368;2023-09-07T05:42:52;5.70;;;4.38;;
15677;SDS011;7939;50.814;6.368;2023-09-07T05:45:18;6.00;;;4.43;;
15677;SDS011;7939;50.814;6.368;2023-09-07T05:47:45;6.50;;;4.38;;
15677;SDS011;7939;50.814;6.368;2023-09-07T05:50:11;4.82;;;4.32;;
15677;SDS011;7939;50.814;6.368;2023-09-07T05:52:38;7.55;;;3.97;;
15677;SDS011;7939;50.814;6.368;2023-09-07T05:55:05;6.30;;;4.97;;
15677;SDS011;7939;50.814;6.368;2023-09-07T05:57:34;8.35;;;5.13;;
15677;SDS011;7939;50.814;6.368;2023-09-07T06:00:01;6.82;;;4.90;;
15677;SDS011;7939;50.814;6.368;2023-09-07T06:02:28;8.73;;;4.70;;
15677;SDS011;7939;50.814;6.368;2023-09-07T06:04:54;5.00;;;4.25;;
15677;SDS011;7939;50.814;6.368;2023-09-07T06:07:21;6.95;;;4.57;;
15677;SDS011;7939;50.814;6.368;2023-09-07T06:09:48;5.60;;;4.75;;
15677;SDS011;7939;50.814;6.368;2023-09-07T06:12:14;6.93;;;4.80;;
15677;SDS011;7939;50.814;6.368;2023-09-07T06:14:42;8.82;;;4.72;;
15677;SDS011;7939;50.814;6.368;2023-09-07T06:17:09;7.07;;;4.32;;
15677;SDS011;7939;50.814;6.368;2023-09-07T06:19:35;5.30;;;4.45;;
15677;SDS011;7939;50.814;6.368;2023-09-07T06:22:02;7.05;;;4.60;;
15677;SDS011;7939;50.814;6.368;2023-09-07T06:24:29;4.50;;;4.05;;
15677;SDS011;7939;50.814;6.368;2023-09-07T06:26:55;6.47;;;4.45;;
15677;SDS011;7939;50.814;6.368;2023-09-07T06:29:22;6.15;;;5.07;;
15677;SDS011;7939;50.814;6.368;2023-09-07T06:31:50;5.47;;;4.78;;
15677;SDS011;7939;50.814;6.368;2023-09-07T06:34:17;7.85;;;5.30;;
15677;SDS011;7939;50.814;6.368;2023-09-07T06:36:44;7.22;;;5.65;;
15677;SDS011;7939;50.814;6.368;2023-09-07T06:39:10;5.95;;;5.13;;
15677;SDS011;7939;50.814;6.368;2023-09-07T06:41:37;7.60;;;5.32;;
15677;SDS011;7939;50.814;6.368;2023-09-07T06:44:03;8.75;;;5.40;;
15677;SDS011;7939;50.814;6.368;2023-09-07T06:46:30;7.05;;;5.15;;
15677;SDS011;7939;50.814;6.368;2023-09-07T06:48:58;7.22;;;5.13;;
15677;SDS011;7939;50.814;6.368;2023-09-07T06:51:25;7.60;;;5.45;;
15677;SDS011;7939;50.814;6.368;2023-09-07T06:53:51;7.75;;;5.18;;
15677;SDS011;7939;50.814;6.368;2023-09-07T06:56:18;8.05;;;4.53;;
15677;SDS011;7939;50.814;6.368;2023-09-07T06:58:44;6.72;;;4.95;;
15677;SDS011;7939;50.814;6.368;2023-09-07T07:01:11;8.88;;;5.40;;
15677;SDS011;7939;50.814;6.368;2023-09-07T07:03:38;7.00;;;5.43;;
15677;SDS011;7939;50.814;6.368;2023-09-07T07:06:05;8.52;;;5.22;;
15677;SDS011;7939;50.814;6.368;2023-09-07T07:08:32;6.57;;;4.97;;
15677;SDS011;7939;50.814;6.368;2023-09-07T07:10:59;8.00;;;5.78;;
15677;SDS011;7939;50.814;6.368;2023-09-07T07:13:26;8.88;;;5.45;;
15677;SDS011;7939;50.814;6.368;2023-09-07T07:15:52;10.77;;;5.63;;
15677;SDS011;7939;50.814;6.368;2023-09-07T07:18:19;8.38;;;5.85;;
15677;SDS011;7939;50.814;6.368;2023-09-07T07:20:45;9.65;;;6.03;;
15677;SDS011;7939;50.814;6.368;2023-09-07T07:23:13;7.43;;;5.20;;
15677;SDS011;7939;50.814;6.368;2023-09-07T07:25:40;7.80;;;5.35;;
15677;SDS011;7939;50.814;6.368;2023-09-07T07:28:07;12.07;;;5.90;;
15677;SDS011;7939;50.814;6.368;2023-09-07T07:30:34;6.60;;;5.15;;
15677;SDS011;7939;50.814;6.368;2023-09-07T07:33:02;9.95;;;5.53;;
15677;SDS011;7939;50.814;6.368;2023-09-07T07:35:29;6.03;;;5.32;;
15677;SDS011;7939;50.814;6.368;2023-09-07T07:37:56;5.97;;;4.97;;
15677;SDS011;7939;50.814;6.368;2023-09-07T07:40:24;7.93;;;5.15;;
15677;SDS011;7939;50.814;6.368;2023-09-07T07:42:51;8.10;;;4.70;;
15677;SDS011;7939;50.814;6.368;2023-09-07T07:45:18;11.27;;;5.43;;
15677;SDS011;7939;50.814;6.368;2023-09-07T07:47:47;5.07;;;4.43;;
15677;SDS011;7939;50.814;6.368;2023-09-07T07:50:14;5.05;;;4.28;;
15677;SDS011;7939;50.814;6.368;2023-09-07T07:52:41;5.85;;;4.55;;
15677;SDS011;7939;50.814;6.368;2023-09-07T07:55:09;6.68;;;4.95;;
15677;SDS011;7939;50.814;6.368;2023-09-07T07:57:38;5.95;;;4.53;;
15677;SDS011;7939;50.814;6.368;2023-09-07T08:00:05;5.63;;;4.05;;
15677;SDS011;7939;50.814;6.368;2023-09-07T08:02:33;7.43;;;4.15;;
15677;SDS011;7939;50.814;6.368;2023-09-07T08:04:59;6.68;;;4.65;;
15677;SDS011;7939;50.814;6.368;2023-09-07T08:07:26;7.63;;;5.10;;
15677;SDS011;7939;50.814;6.368;2023-09-07T08:09:52;4.95;;;4.20;;
15677;SDS011;7939;50.814;6.368;2023-09-07T08:12:19;5.70;;;4.65;;
15677;SDS011;7939;50.814;6.368;2023-09-07T08:14:47;7.47;;;4.85;;
15677;SDS011;7939;50.814;6.368;2023-09-07T08:17:13;6.43;;;4.93;;
15677;SDS011;7939;50.814;6.368;2023-09-07T08:19:40;6.57;;;4.10;;
15677;SDS011;7939;50.814;6.368;2023-09-07T08:22:08;6.13;;;4.63;;
15677;SDS011;7939;50.814;6.368;2023-09-07T08:24:35;6.15;;;4.45;;
15677;SDS011;7939;50.814;6.368;2023-09-07T08:27:02;4.97;;;4.28;;
15677;SDS011;7939;50.814;6.368;2023-09-07T08:29:29;4.85;;;3.92;;
15677;SDS011;7939;50.814;6.368;2023-09-07T08:31:59;4.85;;;3.83;;
15677;SDS011;7939;50.814;6.368;2023-09-07T08:34:29;7.57;;;4.55;;
15677;SDS011;7939;50.814;6.368;2023-09-07T08:36:56;4.50;;;4.05;;
15677;SDS011;7939;50.814;6.368;2023-09-07T08:39:24;4.65;;;4.25;;
15677;SDS011;7939;50.814;6.368;2023-09-07T08:41:51;4.32;;;3.70;;
15677;SDS011;7939;50.814;6.368;2023-09-07T08:44:17;4.15;;;3.58;;
15677;SDS011;7939;50.814;6.368;2023-09-07T08:46:45;6.10;;;4.00;;
15677;SDS011;7939;50.814;6.368;2023-09-07T08:49:14;6.10;;;3.80;;
15677;SDS011;7939;50.814;6.368;2023-09-07T08:51:44;7.70;;;4.53;;
15677;SDS011;7939;50.814;6.368;2023-09-07T08:54:11;6.20;;;4.18;;
15677;SDS011;7939;50.814;6.368;2023-09-07T08:56:39;4.75;;;3.35;;
15677;SDS011;7939;50.814;6.368;2023-09-07T08:59:05;4.38;;;3.95;;
15677;SDS011;7939;50.814;6.368;2023-09-07T09:01:32;5.88;;;3.97;;
15677;SDS011;7939;50.814;6.368;2023-09-07T09:03:59;4.07;;;3.67;;
15677;SDS011;7939;50.814;6.368;2023-09-07T09:06:27;6.72;;;3.92;;
15677;SDS011;7939;50.814;6.368;2023-09-07T09:08:54;4.88;;;4.35;;
15677;SDS011;7939;50.814;6.368;2023-09-07T09:11:22;6.30;;;4.13;;
15677;SDS011;7939;50.814;6.368;2023-09-07T09:13:52;6.07;;;4.25;;
15677;SDS011;7939;50.814;6.368;2023-09-07T09:16:19;7.68;;;4.68;;
15677;SDS011;7939;50.814;6.368;2023-09-07T09:18:49;4.25;;;3.50;;
15677;SDS011;7939;50.814;6.368;2023-09-07T09:21:17;7.03;;;4.13;;
15677;SDS011;7939;50.814;6.368;2023-09-07T09:23:47;4.47;;;3.53;;
15677;SDS011;7939;50.814;6.368;2023-09-07T09:26:14;5.78;;;4.05;;
15677;SDS011;7939;50.814;6.368;2023-09-07T09:28:41;5.47;;;4.13;;
15677;SDS011;7939;50.814;6.368;2023-09-07T09:31:09;4.22;;;3.80;;
15677;SDS011;7939;50.814;6.368;2023-09-07T09:33:37;5.00;;;3.65;;
15677;SDS011;7939;50.814;6.368;2023-09-07T09:36:05;4.45;;;4.00;;
15677;SDS011;7939;50.814;6.368;2023-09-07T09:38:32;6.97;;;4.13;;
15677;SDS011;7939;50.814;6.368;2023-09-07T09:41:00;4.95;;;4.25;;
15677;SDS011;7939;50.814;6.368;2023-09-07T09:43:28;4.38;;;3.78;;
15677;SDS011;7939;50.814;6.368;2023-09-07T09:45:55;6.35;;;4.22;;
15677;SDS011;7939;50.814;6.368;2023-09-07T09:48:23;7.28;;;4.07;;
15677;SDS011;7939;50.814;6.368;2023-09-07T09:50:50;5.32;;;3.70;;
15677;SDS011;7939;50.814;6.368;2023-09-07T09:53:17;4.65;;;4.15;;
15677;SDS011;7939;50.814;6.368;2023-09-07T09:55:45;4.95;;;3.92;;
15677;SDS011;7939;50.814;6.368;2023-09-07T09:58:14;4.30;;;3.53;;
15677;SDS011;7939;50.814;6.368;2023-09-07T10:00:41;5.10;;;4.35;;
15677;SDS011;7939;50.814;6.368;2023-09-07T10:03:10;4.80;;;4.32;;
15677;SDS011;7939;50.814;6.368;2023-09-07T10:05:40;4.38;;;3.60;;
15677;SDS011;7939;50.814;6.368;2023-09-07T10:08:08;5.78;;;3.67;;
15677;SDS011;7939;50.814;6.368;2023-09-07T10:10:36;5.40;;;3.95;;
15677;SDS011;7939;50.814;6.368;2023-09-07T10:13:04;6.30;;;4.50;;
15677;SDS011;7939;50.814;6.368;2023-09-07T10:15:33;6.20;;;4.38;;
15677;SDS011;7939;50.814;6.368;2023-09-07T10:18:09;6.20;;;3.70;;
15677;SDS011;7939;50.814;6.368;2023-09-07T10:20:47;4.93;;;3.70;;
15677;SDS011;7939;50.814;6.368;2023-09-07T10:23:15;4.28;;;3.50;;
15677;SDS011;7939;50.814;6.368;2023-09-07T10:25:42;4.25;;;3.85;;
15677;SDS011;7939;50.814;6.368;2023-09-07T10:28:20;4.32;;;3.88;;
15677;SDS011;7939;50.814;6.368;2023-09-07T10:30:59;6.57;;;4.20;;
15677;SDS011;7939;50.814;6.368;2023-09-07T10:33:28;13.82;;;5.43;;
15677;SDS011;7939;50.814;6.368;2023-09-07T10:35:55;7.68;;;4.10;;
15677;SDS011;7939;50.814;6.368;2023-09-07T10:38:22;4.22;;;3.83;;
15677;SDS011;7939;50.814;6.368;2023-09-07T10:40:49;5.30;;;4.18;;
15677;SDS011;7939;50.814;6.368;2023-09-07T10:43:24;4.40;;;3.97;;
15677;SDS011;7939;50.814;6.368;2023-09-07T10:45:51;6.28;;;4.00;;
15677;SDS011;7939;50.814;6.368;2023-09-07T10:48:20;4.82;;;3.90;;
15677;SDS011;7939;50.814;6.368;2023-09-07T10:50:47;5.03;;;4.30;;
15677;SDS011;7939;50.814;6.368;2023-09-07T10:53:14;4.93;;;4.07;;
15677;SDS011;7939;50.814;6.368;2023-09-07T10:55:41;4.70;;;3.47;;
15677;SDS011;7939;50.814;6.368;2023-09-07T10:58:08;6.28;;;4.05;;
15677;SDS011;7939;50.814;6.368;2023-09-07T11:00:36;4.63;;;4.10;;
15677;SDS011;7939;50.814;6.368;2023-09-07T11:03:07;5.65;;;4.13;;
15677;SDS011;7939;50.814;6.368;2023-09-07T11:05:36;4.70;;;4.15;;
15677;SDS011;7939;50.814;6.368;2023-09-07T11:08:04;4.90;;;4.10;;
15677;SDS011;7939;50.814;6.368;2023-09-07T11:10:32;4.68;;;3.90;;
15677;SDS011;7939;50.814;6.368;2023-09-07T11:13:01;4.00;;;3.60;;
15677;SDS011;7939;50.814;6.368;2023-09-07T11:15:29;4.93;;;3.47;;
15677;SDS011;7939;50.814;6.368;2023-09-07T11:17:56;5.35;;;3.80;;
15677;SDS011;7939;50.814;6.368;2023-09-07T11:20:22;4.03;;;3.47;;
15677;SDS011;7939;50.814;6.368;2023-09-07T11:22:51;4.53;;;3.53;;
15677;SDS011;7939;50.814;6.368;2023-09-07T11:25:17;5.13;;;3.53;;
15677;SDS011;7939;50.814;6.368;2023-09-07T11:27:45;4.85;;;3.40;;
15677;SDS011;7939;50.814;6.368;2023-09-07T11:30:12;4.35;;;3.70;;
15677;SDS011;7939;50.814;6.368;2023-09-07T11:32:38;4.70;;;3.47;;
15677;SDS011;7939;50.814;6.368;2023-09-07T11:35:09;5.18;;;3.85;;
15677;SDS011;7939;50.814;6.368;2023-09-07T11:37:36;4.80;;;3.40;;
15677;SDS011;7939;50.814;6.368;2023-09-07T11:40:04;5.57;;;3.67;;
15677;SDS011;7939;50.814;6.368;2023-09-07T11:42:36;5.68;;;3.95;;
15677;SDS011;7939;50.814;6.368;2023-09-07T11:45:04;6.15;;;3.67;;
15677;SDS011;7939;50.814;6.368;2023-09-07T11:47:33;4.43;;;3.55;;
15677;SDS011;7939;50.814;6.368;2023-09-07T11:49:59;3.92;;;3.50;;
15677;SDS011;7939;50.814;6.368;2023-09-07T11:52:26;14.02;;;4.93;;
15677;SDS011;7939;50.814;6.368;2023-09-07T11:54:53;5.40;;;3.88;;
15677;SDS011;7939;50.814;6.368;2023-09-07T11:57:20;4.43;;;3.30;;
15677;SDS011;7939;50.814;6.368;2023-09-07T11:59:47;3.60;;;3.30;;
15677;SDS011;7939;50.814;6.368;2023-09-07T12:02:14;4.28;;;3.88;;
15677;SDS011;7939;50.814;6.368;2023-09-07T12:04:42;6.60;;;3.78;;
15677;SDS011;7939;50.814;6.368;2023-09-07T12:07:09;4.43;;;3.78;;
15677;SDS011;7939;50.814;6.368;2023-09-07T12:09:36;5.32;;;4.00;;
15677;SDS011;7939;50.814;6.368;2023-09-07T12:12:03;5.78;;;3.33;;
15677;SDS011;7939;50.814;6.368;2023-09-07T12:14:31;7.28;;;3.60;;
15677;SDS011;7939;50.814;6.368;2023-09-07T12:16:58;6.82;;;3.67;;
15677;SDS011;7939;50.814;6.368;2023-09-07T12:19:25;6.85;;;3.80;;
15677;SDS011;7939;50.814;6.368;2023-09-07T12:21:51;4.15;;;3.55;;
15677;SDS011;7939;50.814;6.368;2023-09-07T12:24:18;6.75;;;3.40;;
15677;SDS011;7939;50.814;6.368;2023-09-07T12:26:44;7.57;;;3.78;;
15677;SDS011;7939;50.814;6.368;2023-09-07T12:29:11;3.92;;;3.60;;
15677;SDS011;7939;50.814;6.368;2023-09-07T12:31:39;4.72;;;3.85;;
15677;SDS011;7939;50.814;6.368;2023-09-07T12:34:06;5.35;;;3.60;;
15677;SDS011;7939;50.814;6.368;2023-09-07T12:36:33;8.77;;;4.38;;
15677;SDS011;7939;50.814;6.368;2023-09-07T12:39:00;7.05;;;3.90;;
15677;SDS011;7939;50.814;6.368;2023-09-07T12:41:27;4.88;;;3.95;;
15677;SDS011;7939;50.814;6.368;2023-09-07T12:43:53;5.18;;;3.50;;
15677;SDS011;7939;50.814;6.368;2023-09-07T12:46:20;7.72;;;3.60;;
15677;SDS011;7939;50.814;6.368;2023-09-07T12:48:48;5.78;;;3.88;;
15677;SDS011;7939;50.814;6.368;2023-09-07T12:51:14;11.55;;;5.20;;
15677;SDS011;7939;50.814;6.368;2023-09-07T12:53:42;9.48;;;4.03;;
15677;SDS011;7939;50.814;6.368;2023-09-07T12:56:08;5.43;;;3.80;;
15677;SDS011;7939;50.814;6.368;2023-09-07T12:58:35;6.32;;;3.80;;
15677;SDS011;7939;50.814;6.368;2023-09-07T13:01:02;17.65;;;4.63;;
15677;SDS011;7939;50.814;6.368;2023-09-07T13:03:29;9.77;;;4.15;;
15677;SDS011;7939;50.814;6.368;2023-09-07T13:05:57;6.20;;;4.22;;
15677;SDS011;7939;50.814;6.368;2023-09-07T13:08:23;9.02;;;3.55;;
15677;SDS011;7939;50.814;6.368;2023-09-07T13:10:50;7.82;;;3.92;;
15677;SDS011;7939;50.814;6.368;2023-09-07T13:13:16;6.15;;;3.58;;
15677;SDS011;7939;50.814;6.368;2023-09-07T13:15:43;4.88;;;3.67;;
15677;SDS011;7939;50.814;6.368;2023-09-07T13:18:10;5.40;;;3.30;;
15677;SDS011;7939;50.814;6.368;2023-09-07T13:20:36;5.47;;;3.60;;
15677;SDS011;7939;50.814;6.368;2023-09-07T13:23:04;6.18;;;3.92;;
15677;SDS011;7939;50.814;6.368;2023-09-07T13:25:31;4.90;;;3.70;;
15677;SDS011;7939;50.814;6.368;2023-09-07T13:27:58;5.07;;;3.42;;
15677;SDS011;7939;50.814;6.368;2023-09-07T13:30:24;4.30;;;3.75;;
15677;SDS011;7939;50.814;6.368;2023-09-07T13:32:51;4.65;;;3.78;;
15677;SDS011;7939;50.814;6.368;2023-09-07T13:35:18;4.05;;;3.47;;
15677;SDS011;7939;50.814;6.368;2023-09-07T13:37:44;10.30;;;4.40;;
15677;SDS011;7939;50.814;6.368;2023-09-07T13:40:12;6.60;;;3.78;;
15677;SDS011;7939;50.814;6.368;2023-09-07T13:42:40;7.55;;;4.03;;
15677;SDS011;7939;50.814;6.368;2023-09-07T13:45:08;4.45;;;3.55;;
15677;SDS011;7939;50.814;6.368;2023-09-07T13:47:35;6.18;;;3.85;;
15677;SDS011;7939;50.814;6.368;2023-09-07T13:50:02;5.50;;;3.67;;
15677;SDS011;7939;50.814;6.368;2023-09-07T13:52:29;7.20;;;4.10;;
15677;SDS011;7939;50.814;6.368;2023-09-07T13:54:55;3.67;;;3.38;;
15677;SDS011;7939;50.814;6.368;2023-09-07T13:57:23;6.75;;;4.20;;
15677;SDS011;7939;50.814;6.368;2023-09-07T13:59:50;4.80;;;4.13;;
15677;SDS011;7939;50.814;6.368;2023-09-07T14:02:16;5.35;;;3.47;;
15677;SDS011;7939;50.814;6.368;2023-09-07T14:04:43;4.68;;;3.67;;
15677;SDS011;7939;50.814;6.368;2023-09-07T14:07:10;5.47;;;4.05;;
15677;SDS011;7939;50.814;6.368;2023-09-07T14:09:36;6.05;;;3.17;;
15677;SDS011;7939;50.814;6.368;2023-09-07T14:12:03;7.75;;;3.65;;
15677;SDS011;7939;50.814;6.368;2023-09-07T14:14:32;4.63;;;3.63;;
15677;SDS011;7939;50.814;6.368;2023-09-07T14:16:58;5.05;;;3.50;;
15677;SDS011;7939;50.814;6.368;2023-09-07T14:19:25;7.57;;;3.92;;
15677;SDS011;7939;50.814;6.368;2023-09-07T14:21:52;5.30;;;3.80;;
15677;SDS011;7939;50.814;6.368;2023-09-07T14:24:19;3.88;;;3.58;;
15677;SDS011;7939;50.814;6.368;2023-09-07T14:26:45;5.30;;;3.70;;
15677;SDS011;7939;50.814;6.368;2023-09-07T14:29:12;10.40;;;4.30;;
15677;SDS011;7939;50.814;6.368;2023-09-07T14:31:40;6.05;;;3.63;;
15677;SDS011;7939;50.814;6.368;2023-09-07T14:34:07;5.72;;;4.05;;
15677;SDS011;7939;50.814;6.368;2023-09-07T14:36:33;5.22;;;3.42;;
15677;SDS011;7939;50.814;6.368;2023-09-07T14:39:00;4.80;;;3.42;;
15677;SDS011;7939;50.814;6.368;2023-09-07T14:41:28;8.02;;;4.05;;
15677;SDS011;7939;50.814;6.368;2023-09-07T14:43:55;5.95;;;3.97;;
15677;SDS011;7939;50.814;6.368;2023-09-07T14:46:22;5.38;;;4.05;;
15677;SDS011;7939;50.814;6.368;2023-09-07T14:48:51;5.18;;;4.40;;
15677;SDS011;7939;50.814;6.368;2023-09-07T14:51:18;6.35;;;4.47;;
15677;SDS011;7939;50.814;6.368;2023-09-07T14:53:44;4.38;;;3.38;;
15677;SDS011;7939;50.814;6.368;2023-09-07T14:56:11;5.13;;;3.78;;
15677;SDS011;7939;50.814;6.368;2023-09-07T14:58:38;4.72;;;3.65;;
15677;SDS011;7939;50.814;6.368;2023-09-07T15:01:05;7.80;;;4.25;;